createdAt,value
2022-09-04T00:01:40.068Z,19.78
2022-09-04T00:04:27.001Z,19.76
2022-09-04T00:07:08.723Z,19.78
2022-09-04T00:09:43.690Z,19.85
2022-09-04T00:12:11.806Z,19.77
2022-09-04T00:14:46.415Z,19.68
2022-09-04T00:17:21.263Z,19.52
2022-09-04T00:19:56.398Z,19.52
2022-09-04T00:22:35.364Z,19.58
2022-09-04T00:25:12.106Z,19.57
2022-09-04T00:27:45.191Z,19.48
2022-09-04T00:30:19.872Z,19.40
2022-09-04T00:32:55.920Z,19.40
2022-09-04T00:35:31.363Z,19.42
2022-09-04T00:38:04.437Z,19.47
2022-09-04T00:40:35.811Z,19.48
2022-09-04T00:43:39.692Z,19.41
2022-09-04T00:46:29.810Z,19.31
2022-09-04T00:49:30.075Z,19.13
2022-09-04T00:52:12.175Z,19.11
2022-09-04T00:54:55.282Z,19.01
2022-09-04T00:58:12.657Z,18.97
2022-09-04T01:00:40.719Z,18.93
2022-09-04T01:03:39.320Z,18.91
2022-09-04T01:06:20.155Z,19.03
2022-09-04T01:09:08.260Z,19.16
2022-09-04T01:11:43.259Z,19.27
2022-09-04T01:14:19.902Z,19.31
2022-09-04T01:16:54.251Z,19.30
2022-09-04T01:19:44.291Z,19.17
2022-09-04T01:22:56.901Z,19.17
2022-09-04T01:25:35.826Z,19.16
2022-09-04T01:28:09.392Z,19.35
2022-09-04T01:30:47.159Z,19.43
2022-09-04T01:33:24.273Z,19.45
2022-09-04T01:36:02.146Z,19.37
2022-09-04T01:38:38.316Z,19.40
2022-09-04T01:41:16.664Z,19.39
2022-09-04T01:43:46.019Z,19.35
2022-09-04T01:46:33.700Z,19.33
2022-09-04T01:49:08.130Z,19.14
2022-09-04T01:51:41.638Z,19.14
2022-09-04T01:54:22.070Z,19.16
2022-09-04T01:57:00.786Z,19.18
2022-09-04T01:59:35.735Z,19.16
2022-09-04T02:02:16.228Z,19.09
2022-09-04T02:04:54.620Z,19.14
2022-09-04T02:07:31.720Z,19.07
2022-09-04T02:10:09.119Z,19.02
2022-09-04T02:12:43.201Z,19.03
2022-09-04T02:15:23.688Z,18.99
2022-09-04T02:18:02.906Z,18.92
2022-09-04T02:20:32.393Z,18.86
2022-09-04T02:23:11.811Z,18.84
2022-09-04T02:25:46.303Z,18.84
2022-09-04T02:28:30.859Z,18.86
2022-09-04T02:31:06.789Z,18.88
2022-09-04T02:33:42.998Z,18.82
2022-09-04T02:36:19.733Z,18.79
2022-09-04T02:38:57.178Z,18.84
2022-09-04T02:41:34.667Z,18.89
2022-09-04T02:44:19.883Z,18.88
2022-09-04T02:47:02.548Z,18.86
2022-09-04T02:49:41.133Z,18.83
2022-09-04T02:52:25.780Z,18.81
2022-09-04T02:55:12.384Z,18.76
2022-09-04T02:57:55.108Z,18.78
2022-09-04T03:00:26.025Z,18.70
2022-09-04T03:03:01.780Z,18.67
2022-09-04T03:05:34.472Z,18.67
2022-09-04T03:08:10.228Z,18.66
2022-09-04T03:10:45.260Z,18.69
2022-09-04T03:13:23.320Z,18.66
2022-09-04T03:15:55.719Z,18.61
2022-09-04T03:18:31.620Z,18.60
2022-09-04T03:21:06.359Z,18.60
2022-09-04T03:23:44.265Z,18.62
2022-09-04T03:26:20.862Z,18.69
2022-09-04T03:29:01.050Z,18.74
2022-09-04T03:31:34.319Z,18.68
2022-09-04T03:34:27.348Z,18.65
2022-09-04T03:37:20.680Z,18.66
2022-09-04T03:40:00.768Z,18.64
2022-09-04T03:42:39.931Z,18.62
2022-09-04T03:45:21.348Z,18.65
2022-09-04T03:48:05.747Z,18.58
2022-09-04T03:50:45.204Z,18.57
2022-09-04T03:53:21.864Z,18.49
2022-09-04T03:56:25.446Z,18.50
2022-09-04T03:59:03.126Z,18.53
2022-09-04T04:01:43.090Z,18.56
2022-09-04T04:04:52.219Z,18.54
2022-09-04T04:07:35.532Z,18.44
2022-09-04T04:10:19.612Z,18.36
2022-09-04T04:13:12.400Z,18.43
2022-09-04T04:15:52.349Z,18.49
2022-09-04T04:18:44.501Z,18.46
2022-09-04T04:21:23.617Z,18.49
2022-09-04T04:24:22.827Z,18.48
2022-09-04T04:27:07.820Z,18.34
2022-09-04T04:30:01.794Z,18.31
2022-09-04T04:32:44.126Z,18.37
2022-09-04T04:35:22.382Z,18.39
2022-09-04T04:38:01.481Z,18.44
2022-09-04T04:40:45.641Z,18.47
2022-09-04T04:43:21.216Z,18.49
2022-09-04T04:45:55.089Z,18.49
2022-09-04T04:49:05.362Z,18.47
2022-09-04T04:51:53.429Z,18.46
2022-09-04T04:54:38.883Z,18.51
2022-09-04T04:57:19.299Z,18.50
2022-09-04T04:59:55.851Z,18.47
2022-09-04T05:02:29.989Z,18.45
2022-09-04T05:05:03.665Z,18.38
2022-09-04T05:07:39.054Z,18.33
2022-09-04T05:10:17.739Z,18.26
2022-09-04T05:13:00.297Z,18.20
2022-09-04T05:15:43.802Z,18.20
2022-09-04T05:18:27.087Z,18.20
2022-09-04T05:21:00.924Z,18.17
2022-09-04T05:23:40.730Z,18.18
2022-09-04T05:26:14.519Z,18.15
2022-09-04T05:28:51.769Z,18.13
2022-09-04T05:31:29.906Z,18.15
2022-09-04T05:34:05.847Z,18.12
2022-09-04T05:36:46.027Z,18.05
2022-09-04T05:39:24.098Z,18.08
2022-09-04T05:42:06.631Z,18.09
2022-09-04T05:44:53.312Z,18.13
2022-09-04T05:47:34.363Z,18.15
2022-09-04T05:50:29.408Z,18.10
2022-09-04T05:53:15.922Z,18.10
2022-09-04T05:55:59.863Z,18.05
2022-09-04T05:58:46.291Z,17.92
2022-09-04T06:01:33.162Z,17.99
2022-09-04T06:04:22.805Z,17.98
2022-09-04T06:07:02.277Z,18.00
2022-09-04T06:09:50.876Z,17.97
2022-09-04T06:12:36.665Z,17.97
2022-09-04T06:15:15.139Z,18.03
2022-09-04T06:18:05.217Z,18.12
2022-09-04T06:20:45.533Z,18.16
2022-09-04T06:23:37.394Z,18.15
2022-09-04T06:26:28.844Z,18.09
2022-09-04T06:29:17.297Z,18.13
2022-09-04T06:32:20.618Z,18.19
2022-09-04T06:35:28.497Z,18.24
2022-09-04T06:38:13.935Z,18.38
2022-09-04T06:40:56.660Z,18.54
2022-09-04T06:43:34.746Z,18.68
2022-09-04T06:46:20.315Z,18.80
2022-09-04T06:49:00.319Z,18.91
2022-09-04T06:51:44.133Z,19.03
2022-09-04T06:54:24.027Z,19.13
2022-09-04T06:57:10.571Z,19.09
2022-09-04T07:00:03.879Z,19.17
2022-09-04T07:02:55.580Z,19.24
2022-09-04T07:05:31.046Z,19.31
2022-09-04T07:08:09.178Z,19.40
2022-09-04T07:10:41.215Z,19.46
2022-09-04T07:13:37.576Z,19.52
2022-09-04T07:16:31.291Z,19.60
2022-09-04T07:19:22.101Z,19.72
2022-09-04T07:22:03.983Z,19.73
2022-09-04T07:24:51.159Z,19.74
2022-09-04T07:27:36.398Z,19.78
2022-09-04T07:30:07.590Z,19.93
2022-09-04T07:32:39.328Z,20.04
2022-09-04T07:35:14.631Z,20.00
2022-09-04T07:37:52.621Z,19.98
2022-09-04T07:40:27.915Z,20.02
2022-09-04T07:43:06.956Z,20.13
2022-09-04T07:45:39.505Z,20.18
2022-09-04T07:48:19.651Z,20.14
2022-09-04T07:51:04.675Z,20.10
2022-09-04T07:53:50.633Z,20.30
2022-09-04T07:56:30.180Z,20.27
2022-09-04T07:59:14.256Z,20.20
2022-09-04T08:01:53.911Z,20.20
2022-09-04T08:04:40.517Z,20.15
2022-09-04T08:07:16.986Z,20.02
2022-09-04T08:10:18.489Z,20.18
2022-09-04T08:13:09.830Z,20.32
2022-09-04T08:15:43.982Z,20.47
2022-09-04T08:18:25.892Z,20.59
2022-09-04T08:21:10.136Z,20.53
2022-09-04T08:24:19.648Z,20.72
2022-09-04T08:27:06.063Z,20.84
2022-09-04T08:29:49.428Z,20.82
2022-09-04T08:32:37.174Z,20.80
2022-09-04T08:35:23.764Z,20.70
2022-09-04T08:38:08.468Z,20.74
2022-09-04T08:41:01.862Z,20.82
2022-09-04T08:43:39.674Z,20.72
2022-09-04T08:46:55.283Z,20.77
2022-09-04T08:50:14.781Z,20.91
2022-09-04T08:53:20.858Z,21.06
2022-09-04T08:55:59.896Z,21.06
2022-09-04T08:59:09.474Z,21.08
2022-09-04T09:02:30.132Z,21.22
2022-09-04T09:05:33.558Z,21.17
2022-09-04T09:08:31.413Z,21.16
2022-09-04T09:11:24.661Z,21.18
2022-09-04T09:14:25.671Z,21.35
2022-09-04T09:17:05.960Z,21.43
2022-09-04T09:19:45.602Z,21.42
2022-09-04T09:22:37.550Z,21.43
2022-09-04T09:25:20.888Z,21.26
2022-09-04T09:28:20.107Z,21.33
2022-09-04T09:31:34.556Z,21.47
2022-09-04T09:34:41.540Z,21.70
2022-09-04T09:37:35.219Z,21.68
2022-09-04T09:40:23.441Z,21.70
2022-09-04T09:43:19.069Z,21.83
2022-09-04T09:46:12.235Z,21.96
2022-09-04T09:49:15.112Z,22.10
2022-09-04T09:52:03.615Z,22.13
2022-09-04T09:55:09.035Z,22.16
2022-09-04T09:58:03.453Z,22.22
2022-09-04T10:00:39.771Z,22.27
2022-09-04T10:03:56.704Z,22.26
2022-09-04T10:07:00.349Z,22.28
2022-09-04T10:10:10.893Z,22.41
2022-09-04T10:13:09.957Z,22.52
2022-09-04T10:16:08.395Z,22.63
2022-09-04T10:18:57.203Z,22.80
2022-09-04T10:21:52.021Z,22.82
2022-09-04T10:25:04.056Z,22.95
2022-09-04T10:28:03.133Z,22.92
2022-09-04T10:30:50.163Z,22.98
2022-09-04T10:33:31.987Z,23.03
2022-09-04T10:36:19.739Z,23.04
2022-09-04T10:39:23.016Z,23.02
2022-09-04T10:42:05.560Z,23.13
2022-09-04T10:45:12.007Z,23.21
2022-09-04T10:48:12.875Z,23.30
2022-09-04T10:51:02.061Z,23.39
2022-09-04T10:54:14.182Z,23.44
2022-09-04T10:56:50.249Z,23.45
2022-09-04T10:59:44.772Z,23.33
2022-09-04T11:02:26.521Z,23.29
2022-09-04T11:05:18.965Z,23.47
2022-09-04T11:08:13.690Z,23.59
2022-09-04T11:11:03.895Z,23.63
2022-09-04T11:13:58.138Z,23.65
2022-09-04T11:16:57.403Z,23.75
2022-09-04T11:19:58.103Z,23.77
2022-09-04T11:23:01.170Z,23.84
2022-09-04T11:26:05.834Z,24.06
2022-09-04T11:29:10.997Z,24.17
2022-09-04T11:32:00.023Z,24.17
2022-09-04T11:35:00.824Z,24.18
2022-09-04T11:38:18.599Z,24.18
2022-09-04T11:41:28.307Z,24.28
2022-09-04T11:44:29.859Z,24.35
2022-09-04T11:47:31.481Z,24.54
2022-09-04T11:50:16.613Z,24.61
2022-09-04T11:53:08.131Z,24.66
2022-09-04T11:56:03.985Z,24.71
2022-09-04T11:58:52.177Z,24.70
2022-09-04T12:01:36.640Z,24.64
2022-09-04T12:04:30.637Z,24.68
2022-09-04T12:07:14.135Z,24.76
2022-09-04T12:10:02.926Z,24.76
2022-09-04T12:13:14.546Z,24.64
2022-09-04T12:16:10.811Z,24.68
2022-09-04T12:19:27.467Z,24.78
2022-09-04T12:22:50.286Z,24.90
2022-09-04T12:25:41.220Z,25.02
2022-09-04T12:28:48.938Z,24.89
2022-09-04T12:31:40.345Z,24.83
2022-09-04T12:34:27.134Z,24.88
2022-09-04T12:37:27.560Z,25.04
2022-09-04T12:40:31.758Z,25.12
2022-09-04T12:43:13.136Z,25.24
2022-09-04T12:45:49.863Z,25.30
2022-09-04T12:48:32.915Z,25.27
2022-09-04T12:51:12.107Z,25.35
2022-09-04T12:54:04.307Z,25.37
2022-09-04T12:56:49.082Z,25.32
2022-09-04T12:59:35.824Z,25.31
2022-09-04T13:02:14.131Z,25.34
2022-09-04T13:04:57.542Z,25.36
2022-09-04T13:07:44.020Z,25.50
2022-09-04T13:10:23.892Z,25.72
2022-09-04T13:13:04.056Z,25.93
2022-09-04T13:15:49.379Z,26.07
2022-09-04T13:18:43.299Z,26.10
2022-09-04T13:21:27.431Z,26.25
2022-09-04T13:24:16.068Z,26.30
2022-09-04T13:27:02.564Z,26.36
2022-09-04T13:29:44.561Z,26.51
2022-09-04T13:32:41.890Z,26.59
2022-09-04T13:35:19.520Z,26.82
2022-09-04T13:38:11.656Z,26.98
2022-09-04T13:41:09.645Z,26.66
2022-09-04T13:44:01.745Z,26.56
2022-09-04T13:46:33.979Z,26.64
2022-09-04T13:49:06.393Z,26.83
2022-09-04T13:51:39.926Z,26.94
2022-09-04T13:54:13.729Z,26.87
2022-09-04T13:56:47.055Z,26.80
2022-09-04T13:59:18.515Z,26.95
2022-09-04T14:01:52.543Z,27.04
2022-09-04T14:04:26.602Z,27.15
2022-09-04T14:07:02.471Z,27.23
2022-09-04T14:09:36.102Z,27.30
2022-09-04T14:12:23.140Z,27.17
2022-09-04T14:15:31.444Z,27.27
2022-09-04T14:18:13.520Z,27.45
2022-09-04T14:21:00.955Z,27.43
2022-09-04T14:23:42.915Z,27.58
2022-09-04T14:26:24.536Z,27.51
2022-09-04T14:28:59.394Z,27.64
2022-09-04T14:31:35.343Z,27.96
2022-09-04T14:34:17.478Z,28.08
2022-09-04T14:36:56.591Z,27.99
2022-09-04T14:39:31.509Z,28.10
2022-09-04T14:42:22.236Z,28.16
2022-09-04T14:45:01.701Z,28.29
2022-09-04T14:47:40.221Z,28.20
2022-09-04T14:50:09.853Z,28.10
2022-09-04T14:52:42.570Z,28.04
2022-09-04T14:55:16.981Z,28.10
2022-09-04T14:57:51.346Z,28.05
2022-09-04T15:00:20.902Z,28.18
2022-09-04T15:02:58.094Z,28.15
2022-09-04T15:05:31.875Z,28.16
2022-09-04T15:08:02.839Z,28.04
2022-09-04T15:10:47.603Z,28.04
2022-09-04T15:13:48.318Z,28.03
2022-09-04T15:16:24.978Z,27.98
2022-09-04T15:19:05.055Z,28.01
2022-09-04T15:21:40.628Z,28.21
2022-09-04T15:24:18.246Z,28.10
2022-09-04T15:26:55.748Z,28.21
2022-09-04T15:29:32.133Z,28.32
2022-09-04T15:32:01.846Z,28.44
2022-09-04T15:34:31.378Z,28.33
2022-09-04T15:37:12.217Z,28.14
2022-09-04T15:39:50.461Z,28.31
2022-09-04T15:42:36.144Z,28.19
2022-09-04T15:45:15.549Z,28.33
2022-09-04T15:48:06.491Z,28.32
2022-09-04T15:50:40.379Z,28.50
2022-09-04T15:53:26.414Z,28.55
2022-09-04T15:56:06.319Z,28.58
2022-09-04T15:58:41.547Z,28.61
2022-09-04T16:01:16.985Z,28.70
2022-09-04T16:04:00.169Z,28.67
2022-09-04T16:06:32.815Z,28.54
2022-09-04T16:09:06.683Z,28.54
2022-09-04T16:11:39.128Z,28.41
2022-09-04T16:14:12.749Z,28.63
2022-09-04T16:16:48.604Z,28.69
2022-09-04T16:19:25.859Z,28.75
2022-09-04T16:22:05.838Z,28.78
2022-09-04T16:24:40.008Z,28.83
2022-09-04T16:27:12.385Z,28.75
2022-09-04T16:29:46.233Z,28.69
2022-09-04T16:32:22.210Z,28.79
2022-09-04T16:34:55.150Z,28.88
2022-09-04T16:37:28.665Z,28.77
2022-09-04T16:40:04.635Z,28.51
2022-09-04T16:42:40.293Z,28.65
2022-09-04T16:45:15.451Z,28.84
2022-09-04T16:47:51.161Z,28.84
2022-09-04T16:50:25.933Z,28.78
2022-09-04T16:53:13.353Z,28.74
2022-09-04T16:55:59.317Z,28.46
2022-09-04T16:58:40.271Z,28.22
2022-09-04T17:01:16.746Z,28.01
2022-09-04T17:04:13.422Z,28.13
2022-09-04T17:06:56.379Z,28.22
2022-09-04T17:09:32.124Z,28.11
2022-09-04T17:12:17.766Z,28.03
2022-09-04T17:14:51.967Z,28.16
2022-09-04T17:17:29.990Z,28.17
2022-09-04T17:20:07.349Z,28.00
2022-09-04T17:28:19.027Z,27.87
2022-09-04T17:29:09.934Z,27.89
2022-09-04T17:29:18.800Z,27.87
2022-09-04T17:31:45.883Z,27.50
2022-09-04T17:40:31.897Z,27.32
2022-09-04T17:40:41.634Z,27.13
2022-09-04T17:40:53.764Z,27.00
2022-09-04T17:43:24.326Z,26.90
2022-09-04T17:46:07.692Z,26.74
2022-09-04T17:48:42.826Z,26.48
2022-09-04T17:51:18.856Z,26.22
2022-09-04T17:53:52.820Z,26.01
2022-09-04T17:56:25.898Z,25.83
2022-09-04T17:59:02.067Z,25.67
2022-09-04T18:01:36.600Z,25.52
2022-09-04T18:04:27.241Z,25.41
2022-09-04T18:07:39.591Z,25.27
2022-09-04T18:10:04.064Z,25.14
2022-09-04T18:12:38.827Z,25.10
2022-09-04T18:15:33.951Z,25.16
2022-09-04T18:18:11.905Z,25.04
2022-09-04T18:20:45.253Z,25.02
2022-09-04T18:23:23.160Z,24.98
2022-09-04T18:25:57.498Z,24.90
2022-09-04T18:28:33.708Z,24.85
2022-09-04T18:37:09.265Z,24.79
2022-09-04T18:37:18.792Z,24.76
2022-09-04T18:37:24.172Z,24.69
2022-09-04T18:40:03.822Z,24.64
2022-09-04T18:49:15.967Z,24.62
2022-09-04T18:50:31.399Z,24.22
2022-09-04T18:50:32.525Z,24.35
2022-09-04T18:51:30.531Z,24.05
2022-09-04T18:54:04.009Z,24.01
2022-09-04T18:56:37.797Z,24.02
2022-09-04T18:59:11.713Z,23.85
2022-09-04T19:01:44.267Z,23.86
2022-09-04T19:04:38.945Z,23.84
2022-09-04T19:07:11.700Z,23.86
2022-09-04T19:10:09.450Z,23.85
2022-09-04T19:12:47.978Z,23.77
2022-09-04T19:15:36.903Z,23.76
2022-09-04T19:18:15.126Z,23.73
2022-09-04T19:20:48.310Z,23.61
2022-09-04T19:23:26.604Z,23.59
2022-09-04T19:25:57.545Z,23.52
2022-09-04T19:28:35.680Z,23.50
2022-09-04T19:31:16.464Z,23.48
2022-09-04T19:33:50.495Z,23.48
2022-09-04T19:36:24.763Z,23.51
2022-09-04T19:44:44.513Z,23.55
2022-09-04T19:46:15.503Z,23.46
2022-09-04T19:46:16.322Z,23.54
2022-09-04T19:47:57.946Z,23.42
2022-09-04T19:53:31.358Z,23.40
2022-09-04T19:53:41.190Z,23.39
2022-09-04T19:56:31.373Z,23.28
2022-09-04T19:59:06.660Z,23.07
2022-09-04T20:01:45.753Z,22.97
2022-09-04T20:04:26.549Z,22.93
2022-09-04T20:06:59.543Z,22.92
2022-09-04T20:09:34.271Z,22.98
2022-09-04T20:12:11.879Z,22.99
2022-09-04T20:14:47.033Z,22.91
2022-09-04T20:17:30.536Z,22.88
2022-09-04T20:20:04.383Z,22.89
2022-09-04T20:22:37.741Z,22.92
2022-09-04T20:25:30.449Z,22.96
2022-09-04T20:28:08.750Z,22.97
2022-09-04T20:30:38.902Z,22.99
2022-09-04T20:33:12.544Z,23.00
2022-09-04T20:35:46.755Z,23.01
2022-09-04T20:38:24.251Z,22.98
2022-09-04T20:40:57.157Z,22.99
2022-09-04T20:43:32.256Z,22.97
2022-09-04T20:51:29.328Z,22.96
2022-09-04T20:52:50.064Z,22.85
2022-09-04T20:53:05.702Z,22.79
2022-09-04T20:55:12.666Z,22.73
2022-09-04T21:02:47.291Z,22.71
2022-09-04T21:03:14.705Z,22.67
2022-09-04T21:04:05.564Z,22.60
2022-09-04T21:06:39.804Z,22.61
2022-09-04T21:09:18.592Z,22.59
2022-09-04T21:11:51.024Z,22.64
2022-09-04T21:14:27.335Z,22.60
2022-09-04T21:17:36.118Z,22.58
2022-09-04T21:20:59.317Z,22.47
2022-09-04T21:24:03.052Z,22.44
2022-09-04T21:26:50.764Z,22.48
2022-09-04T21:29:40.610Z,22.50
2022-09-04T21:32:29.941Z,22.57
2022-09-04T21:35:07.989Z,22.48
2022-09-04T21:37:46.637Z,22.48
2022-09-04T21:40:51.034Z,22.46
2022-09-04T21:43:58.920Z,22.47
2022-09-04T21:46:43.736Z,22.45
2022-09-04T21:49:44.756Z,22.47
2022-09-04T21:52:33.099Z,22.46
2022-09-04T21:59:04.666Z,22.46
2022-09-04T22:02:42.419Z,22.44
2022-09-04T22:02:43.254Z,22.48
2022-09-04T22:04:38.587Z,22.41
2022-09-04T22:10:08.429Z,22.45
2022-09-04T22:13:30.398Z,22.47
2022-09-04T22:13:33.323Z,22.47
2022-09-04T22:16:25.988Z,22.43
2022-09-04T22:19:16.548Z,22.43
2022-09-04T22:22:03.867Z,22.41
2022-09-04T22:25:01.812Z,22.44
2022-09-04T22:28:08.293Z,22.42
2022-09-04T22:31:04.556Z,22.35
2022-09-04T22:34:16.923Z,22.28
2022-09-04T22:37:15.852Z,22.21
2022-09-04T22:40:04.705Z,22.14
2022-09-04T22:42:49.104Z,22.15
2022-09-04T22:45:49.769Z,22.16
2022-09-04T22:49:11.775Z,22.08
2022-09-04T22:52:00.990Z,21.96
2022-09-04T22:54:55.563Z,21.78
2022-09-04T22:57:31.597Z,21.70
2022-09-04T23:00:11.931Z,21.74
2022-09-04T23:03:09.111Z,21.80
2022-09-04T23:08:53.545Z,21.80
2022-09-04T23:13:59.884Z,21.81
2022-09-04T23:13:59.885Z,21.80
2022-09-04T23:16:27.750Z,21.76
2022-09-04T23:26:31.312Z,21.70
2022-09-04T23:26:39.094Z,21.69
2022-09-04T23:26:43.776Z,21.67
2022-09-04T23:28:40.428Z,21.63
2022-09-04T23:31:46.229Z,21.66
2022-09-04T23:34:39.013Z,21.70
2022-09-04T23:37:33.071Z,21.79
2022-09-04T23:40:28.479Z,21.79
2022-09-04T23:43:16.469Z,21.82
2022-09-04T23:46:32.397Z,21.81
2022-09-04T23:49:32.140Z,21.50
2022-09-04T23:52:09.019Z,21.33
2022-09-04T23:54:59.489Z,21.20
2022-09-04T23:57:30.048Z,21.17
